Time;durP1;ratioP1;P1;durP2;ratioP2;P2;SDS_P1;SDS_P2;PMS_P1;PMS_P2;Temp;Humidity;BMP_temperature;BMP_pressure;BME280_temperature;BME280_humidity;BME280_pressure;Samples;Min_cycle;Max_cycle;Signal;HPM_P1;HPM_P2
2022/10/27 00:00:39;;;;;;;;;;;;;;;20.95;61.54;101811.75;7404512;19;1379;-70
2022/10/27 00:03:07;;;;;;;;;;;;;;;20.94;61.69;101806.47;7406537;19;1749;-70
2022/10/27 00:05:36;;;;;;;;;;;;;;;20.95;61.65;101801.00;7409293;19;1398;-70
2022/10/27 00:08:04;;;;;;;;;;;;;;;20.96;61.60;101801.84;7409685;19;1020;-70
2022/10/27 00:10:33;;;;;;;;;;;;;;;20.94;61.70;101804.63;7410343;19;1927;-70
2022/10/27 00:13:02;;;;;;;;;;;;;;;20.95;61.44;101811.75;7409264;19;1651;-70
2022/10/27 00:15:33;;;;;;;;;;;;;;;20.94;61.78;101809.16;7410723;19;919;-70
2022/10/27 00:18:01;;;;;;;;;;;;;;;20.95;61.55;101811.75;7405561;19;1853;-70
2022/10/27 00:20:29;;;;;;;;;;;;;;;20.96;61.47;101817.97;7406166;19;1753;-70
2022/10/27 00:22:57;;;;;;;;;;;;;;;20.98;61.55;101810.63;7405630;19;1773;-70
2022/10/27 00:25:25;;;;;;;;;;;;;;;20.95;61.51;101813.56;7406153;19;1697;-70
2022/10/27 00:27:54;;;;;;;;;;;;;;;20.99;61.73;101829.34;7406939;19;1419;-70
2022/10/27 00:30:22;;;;;;;;;;;;;;;20.93;61.64;101816.38;7408778;19;1045;-70
2022/10/27 00:32:53;;;;;;;;;;;;;;;20.94;61.74;101815.41;7407994;19;1709;-70
2022/10/27 00:35:21;;;;;;;;;;;;;;;20.90;61.45;101813.94;7408361;19;1307;-70
2022/10/27 00:37:49;;;;;;;;;;;;;;;20.90;61.40;101800.50;7406723;19;1849;-70
2022/10/27 00:40:17;;;;;;;;;;;;;;;20.92;61.53;101805.75;7407372;19;1551;-70
2022/10/27 00:42:47;;;;;;;;;;;;;;;20.90;61.35;101807.72;7406961;19;1328;-70
2022/10/27 00:45:15;;;;;;;;;;;;;;;20.90;61.66;101811.25;7405121;19;1075;-70
2022/10/27 00:47:43;;;;;;;;;;;;;;;20.92;61.66;101809.28;7406516;19;1347;-70
2022/10/27 00:50:16;;;;;;;;;;;;;;;20.91;61.34;101815.66;7406620;19;1515;-70
2022/10/27 00:52:46;;;;;;;;;;;;;;;20.89;61.73;101814.03;7408986;19;1706;-70
2022/10/27 00:55:17;;;;;;;;;;;;;;;20.93;61.65;101796.69;7406529;19;1647;-70
2022/10/27 00:57:47;;;;;;;;;;;;;;;20.90;61.37;101805.03;7404759;19;1846;-70
2022/10/27 01:00:16;;;;;;;;;;;;;;;20.90;61.63;101808.56;7405797;19;1004;-70
2022/10/27 01:02:45;;;;;;;;;;;;;;;21.12;61.44;101828.34;7405565;19;1675;-70
2022/10/27 01:05:19;;;;;;;;;;;;;;;21.60;59.83;101793.03;7405770;19;1734;-70
2022/10/27 01:07:48;;;;;;;;;;;;;;;22.13;58.88;101814.59;7405028;19;1423;-70
2022/10/27 01:10:16;;;;;;;;;;;;;;;22.07;58.66;101809.75;7403963;19;1630;-70
2022/10/27 01:12:45;;;;;;;;;;;;;;;21.62;59.87;101799.16;7405587;19;1516;-71
2022/10/27 01:15:13;;;;;;;;;;;;;;;21.58;61.19;101814.69;7402418;19;1497;-71
2022/10/27 01:17:47;;;;;;;;;;;;;;;21.83;60.84;101808.13;7404807;19;1865;-71
2022/10/27 01:20:34;;;;;;;;;;;;;;;21.93;61.09;101804.69;7405208;19;1493;-71
2022/10/27 01:23:06;;;;;;;;;;;;;;;21.65;62.92;101807.00;7407016;19;1382;-71
2022/10/27 01:25:48;;;;;;;;;;;;;;;21.42;62.76;101817.78;7407055;19;1616;-71
2022/10/27 01:28:27;;;;;;;;;;;;;;;21.33;62.68;101801.53;7405235;19;1535;-70
2022/10/27 01:31:03;;;;;;;;;;;;;;;21.26;62.98;101820.00;7405874;19;925;-70
2022/10/27 01:33:34;;;;;;;;;;;;;;;21.24;62.99;101824.66;7405230;19;1271;-71
2022/10/27 01:36:05;;;;;;;;;;;;;;;21.19;63.14;101810.75;7406694;19;1780;-71
2022/10/27 01:38:35;;;;;;;;;;;;;;;21.17;63.14;101826.13;7403886;19;1818;-71
2022/10/27 01:41:08;;;;;;;;;;;;;;;21.16;63.20;101816.38;7405237;19;1623;-71
2022/10/27 01:43:37;;;;;;;;;;;;;;;21.17;63.19;101826.13;7403355;19;1590;-62
2022/10/27 01:46:10;;;;;;;;;;;;;;;21.16;63.12;101824.44;7406014;19;1575;-62
2022/10/27 01:48:39;;;;;;;;;;;;;;;21.14;63.09;101821.84;7403051;19;1362;-62
2022/10/27 01:51:08;;;;;;;;;;;;;;;21.12;63.23;101831.03;7403917;19;1671;-62
2022/10/27 01:53:39;;;;;;;;;;;;;;;21.16;63.12;101836.03;7404184;19;1640;-62
2022/10/27 01:56:27;;;;;;;;;;;;;;;21.11;63.00;101843.63;7403892;19;1757;-62
2022/10/27 01:59:06;;;;;;;;;;;;;;;21.05;62.90;101820.78;7402438;19;1851;-62
2022/10/27 02:01:45;;;;;;;;;;;;;;;21.06;62.93;101830.53;7394890;19;1755;-62
2022/10/27 02:04:18;;;;;;;;;;;;;;;21.06;62.99;101835.91;7403201;19;1363;-62
2022/10/27 02:06:50;;;;;;;;;;;;;;;21.04;62.65;101829.81;7401949;19;1499;-62
2022/10/27 02:09:22;;;;;;;;;;;;;;;21.01;62.93;101843.53;7402129;19;1552;-62
2022/10/27 02:11:53;;;;;;;;;;;;;;;21.03;62.53;101852.31;7403292;19;1444;-62
2022/10/27 02:14:22;;;;;;;;;;;;;;;20.99;62.90;101829.34;7402975;19;1465;-62
2022/10/27 02:16:54;;;;;;;;;;;;;;;21.03;62.92;101852.31;7400624;19;1647;-62
2022/10/27 02:19:24;;;;;;;;;;;;;;;21.47;62.39;101848.84;7400195;19;1853;-62
2022/10/27 02:21:54;;;;;;;;;;;;;;;21.89;61.25;101846.31;7401237;19;1641;-62
2022/10/27 02:24:23;;;;;;;;;;;;;;;21.85;61.09;101856.47;7400801;19;1376;-62
2022/10/27 02:26:54;;;;;;;;;;;;;;;21.59;62.97;101864.03;7402859;19;1622;-62
2022/10/27 02:29:25;;;;;;;;;;;;;;;21.36;62.83;101849.72;7402092;19;1588;-62
2022/10/27 02:31:58;;;;;;;;;;;;;;;21.26;63.32;101866.59;7401076;19;1404;-62
2022/10/27 02:34:27;;;;;;;;;;;;;;;21.17;63.35;101863.78;7403856;19;1520;-62
2022/10/27 02:36:55;;;;;;;;;;;;;;;21.15;63.56;101879.19;7402423;19;1401;-62
2022/10/27 02:39:24;;;;;;;;;;;;;;;21.12;63.60;101876.75;7399971;19;1849;-63
2022/10/27 02:41:52;;;;;;;;;;;;;;;21.12;63.27;101876.75;7401786;19;1522;-62
2022/10/27 02:44:20;;;;;;;;;;;;;;;21.13;63.43;101889.22;7403323;19;1055;-62
2022/10/27 02:46:49;;;;;;;;;;;;;;;21.08;63.19;101886.91;7403940;19;1494;-62
2022/10/27 02:49:20;;;;;;;;;;;;;;;21.10;63.44;101878.72;7409227;19;1548;-62
2022/10/27 02:51:48;;;;;;;;;;;;;;;21.09;63.05;101887.75;7404636;19;1541;-63
2022/10/27 02:54:16;;;;;;;;;;;;;;;21.02;63.38;101874.78;7409009;19;1640;-62
2022/10/27 02:56:45;;;;;;;;;;;;;;;21.02;63.45;101888.25;7410130;19;991;-62
2022/10/27 02:59:13;;;;;;;;;;;;;;;21.00;63.50;101890.19;7408315;19;1865;-62
2022/10/27 03:01:41;;;;;;;;;;;;;;;21.01;63.56;101897.31;7404737;19;1593;-62
2022/10/27 03:04:09;;;;;;;;;;;;;;;21.01;63.24;101908.06;7409256;19;1497;-62
2022/10/27 03:06:40;;;;;;;;;;;;;;;20.95;63.62;101908.53;7409046;19;1536;-62
2022/10/27 03:09:09;;;;;;;;;;;;;;;20.98;63.37;101899.38;7409839;19;1390;-62
2022/10/27 03:11:37;;;;;;;;;;;;;;;20.96;63.14;101904.88;7409686;19;1457;-62
2022/10/27 03:14:05;;;;;;;;;;;;;;;20.94;63.12;101901.44;7407524;19;1639;-62
2022/10/27 03:16:34;;;;;;;;;;;;;;;20.94;63.24;101909.50;7405500;19;1522;-62
2022/10/27 03:19:02;;;;;;;;;;;;;;;20.95;62.81;101919.31;7407524;19;1869;-62
2022/10/27 03:21:30;;;;;;;;;;;;;;;20.95;62.71;101926.50;7408632;19;1564;-62
2022/10/27 03:24:01;;;;;;;;;;;;;;;20.90;63.14;101924.16;7409401;19;1003;-62
2022/10/27 03:26:29;;;;;;;;;;;;;;;20.91;63.20;101920.53;7408755;19;1438;-62
2022/10/27 03:28:58;;;;;;;;;;;;;;;20.90;62.68;101905.34;7408591;19;1541;-62
2022/10/27 03:31:26;;;;;;;;;;;;;;;20.94;62.92;101922.94;7405315;19;1690;-62
2022/10/27 03:33:54;;;;;;;;;;;;;;;20.89;62.97;101919.78;7408588;19;1418;-62
2022/10/27 03:36:23;;;;;;;;;;;;;;;20.91;62.73;101919.63;7408323;19;1513;-62
2022/10/27 03:38:53;;;;;;;;;;;;;;;20.88;62.82;101907.31;7407185;19;1873;-62
2022/10/27 03:41:26;;;;;;;;;;;;;;;20.84;63.01;101933.56;7407903;19;1509;-62
2022/10/27 03:43:54;;;;;;;;;;;;;;;20.85;62.54;101924.53;7405773;19;1662;-62
2022/10/27 03:46:22;;;;;;;;;;;;;;;20.89;62.72;101941.28;7404726;19;1631;-62
2022/10/27 03:48:51;;;;;;;;;;;;;;;20.81;62.69;101922.19;7404909;19;1528;-62
2022/10/27 03:51:19;;;;;;;;;;;;;;;20.86;62.84;101920.00;7408740;19;1067;-62
2022/10/27 03:53:47;;;;;;;;;;;;;;;20.84;62.71;101941.63;7408081;19;1667;-62
2022/10/27 03:56:15;;;;;;;;;;;;;;;20.82;62.83;101926.59;7406075;19;1655;-62
2022/10/27 03:58:46;;;;;;;;;;;;;;;20.83;62.72;101939.06;7405645;19;1821;-62
2022/10/27 04:01:15;;;;;;;;;;;;;;;20.78;62.95;101928.66;7406447;19;1451;-63
2022/10/27 04:03:43;;;;;;;;;;;;;;;20.78;62.84;101939.41;7409805;19;932;-63
2022/10/27 04:06:11;;;;;;;;;;;;;;;20.78;62.57;101942.09;7406548;19;1546;-62
2022/10/27 04:08:40;;;;;;;;;;;;;;;20.77;62.55;101939.53;7405917;19;1442;-62
2022/10/27 04:11:08;;;;;;;;;;;;;;;20.82;62.57;101950.81;7403430;19;1643;-62
2022/10/27 04:13:36;;;;;;;;;;;;;;;20.78;62.42;101943.94;7406276;19;1424;-62
2022/10/27 04:16:07;;;;;;;;;;;;;;;20.76;62.65;101946.75;7407685;19;1034;-62
2022/10/27 04:18:36;;;;;;;;;;;;;;;20.78;62.57;101949.31;7406767;19;1861;-62
2022/10/27 04:21:04;;;;;;;;;;;;;;;20.76;62.44;101951.28;7406783;19;1746;-62
2022/10/27 04:23:32;;;;;;;;;;;;;;;20.78;62.74;101949.31;7406001;19;1840;-62
2022/10/27 04:26:01;;;;;;;;;;;;;;;20.74;62.70;101947.84;7405605;19;1718;-61
2022/10/27 04:28:29;;;;;;;;;;;;;;;20.77;62.44;101958.34;7406091;19;1535;-62
2022/10/27 04:30:57;;;;;;;;;;;;;;;20.74;62.85;101967.53;7406410;19;1788;-62
2022/10/27 04:33:28;;;;;;;;;;;;;;;20.73;62.69;101978.38;7407152;19;1857;-62
2022/10/27 04:35:57;;;;;;;;;;;;;;;20.70;62.63;101975.94;7404734;19;1538;-62
2022/10/27 04:38:25;;;;;;;;;;;;;;;20.68;62.55;101973.38;7404530;19;1858;-62
2022/10/27 04:40:53;;;;;;;;;;;;;;;20.68;62.82;101983.28;7405647;19;1433;-62
2022/10/27 04:43:22;;;;;;;;;;;;;;;20.63;62.81;101978.22;7404183;19;1627;-62
2022/10/27 04:45:50;;;;;;;;;;;;;;;20.61;63.15;101986.44;7404836;19;1269;-62
2022/10/27 04:48:19;;;;;;;;;;;;;;;20.56;62.94;101985.88;7405562;19;1628;-62
2022/10/27 04:50:49;;;;;;;;;;;;;;;20.55;63.02;101985.97;7405021;19;1157;-62
2022/10/27 04:53:18;;;;;;;;;;;;;;;20.61;63.25;101982.84;7405224;19;1251;-62
2022/10/27 04:55:46;;;;;;;;;;;;;;;20.59;63.10;101985.69;7405201;19;1184;-62
2022/10/27 04:58:14;;;;;;;;;;;;;;;20.62;63.11;101988.13;7404862;19;1865;-62
2022/10/27 05:00:43;;;;;;;;;;;;;;;20.62;63.37;101998.88;7397609;19;1458;-62
2022/10/27 05:03:11;;;;;;;;;;;;;;;20.66;63.00;102011.09;7402099;19;1326;-60
2022/10/27 05:05:40;;;;;;;;;;;;;;;20.70;63.12;102002.81;7402492;19;1128;-61
2022/10/27 05:08:11;;;;;;;;;;;;;;;20.73;63.45;102013.31;7402898;19;1221;-60
2022/10/27 05:10:40;;;;;;;;;;;;;;;20.65;63.77;102003.16;7404482;19;1408;-62
2022/10/27 05:13:08;;;;;;;;;;;;;;;20.78;63.02;102019.22;7403506;19;1690;-62
2022/10/27 05:15:36;;;;;;;;;;;;;;;20.75;62.85;102019.44;7404193;19;1130;-62
2022/10/27 05:18:04;;;;;;;;;;;;;;;20.79;63.24;102032.56;7403498;19;1416;-62
2022/10/27 05:20:33;;;;;;;;;;;;;;;20.80;62.75;102014.59;7325658;19;14084;-62
2022/10/27 05:23:01;;;;;;;;;;;;;;;20.81;63.14;102018.97;7401678;19;1238;-63
2022/10/27 05:25:32;;;;;;;;;;;;;;;20.87;63.20;102005.09;7403981;19;1627;-62
2022/10/27 05:28:04;;;;;;;;;;;;;;;21.11;62.86;102009.53;7404291;19;1470;-61
2022/10/27 05:30:32;;;;;;;;;;;;;;;21.53;61.35;102020.63;7404998;19;1546;-61
2022/10/27 05:33:01;;;;;;;;;;;;;;;21.54;62.17;102012.41;7403970;19;1671;-63
2022/10/27 05:35:29;;;;;;;;;;;;;;;21.39;62.24;102030.63;7403667;19;1208;-61
2022/10/27 05:37:58;;;;;;;;;;;;;;;21.32;63.38;102042.81;7403300;19;1432;-61
2022/10/27 05:40:32;;;;;;;;;;;;;;;21.60;62.22;102032.63;7401192;19;1842;-61
2022/10/27 05:43:04;;;;;;;;;;;;;;;21.87;61.77;102042.19;7400821;19;1573;-61
2022/10/27 05:45:33;;;;;;;;;;;;;;;21.69;62.78;102036.44;7403421;19;1565;-62
2022/10/27 05:48:02;;;;;;;;;;;;;;;21.48;63.28;102052.44;7402843;19;1406;-64
2022/10/27 05:50:30;;;;;;;;;;;;;;;21.55;62.96;102061.75;7403708;19;1421;-64
2022/10/27 05:52:59;;;;;;;;;;;;;;;21.88;61.93;102049.25;7401699;19;1469;-66
2022/10/27 05:55:27;;;;;;;;;;;;;;;21.83;62.32;102055.88;7403946;19;1536;-65
2022/10/27 05:57:56;;;;;;;;;;;;;;;21.62;62.39;102057.56;7401113;19;1351;-66
2022/10/27 06:00:29;;;;;;;;;;;;;;;21.46;63.71;102074.06;7401891;19;1857;-63
2022/10/27 06:02:58;;;;;;;;;;;;;;;21.95;62.03;102061.25;7401084;19;1717;-62
2022/10/27 06:05:26;;;;;;;;;;;;;;;22.29;61.10;102074.72;7401185;19;1500;-70
2022/10/27 12:49:08;;;;;;;;;;;;;;;21.72;59.67;102010.09;7383940;19;1869;-36
2022/10/27 12:51:38;;;;;;;;;;;;;;;21.74;60.21;102018.91;7402477;19;1325;-35
2022/10/27 12:54:19;;;;;;;;;;;;;;;21.73;59.13;102011.81;7403791;19;1036;-36
2022/10/27 12:56:53;;;;;;;;;;;;;;;21.70;59.83;102022.81;7403355;19;1623;-39
2022/10/27 12:59:25;;;;;;;;;;;;;;;21.72;60.64;102009.25;7394283;19;1420;-35
2022/10/27 13:01:57;;;;;;;;;;;;;;;21.74;57.98;102013.50;7395991;19;1475;-35
2022/10/27 13:04:40;;;;;;;;;;;;;;;21.78;58.73;102004.22;7397662;19;1616;-35
2022/10/27 13:07:33;;;;;;;;;;;;;;;21.78;54.92;102012.28;7399202;19;1822;-35
2022/10/27 13:10:12;;;;;;;;;;;;;;;21.76;58.16;102010.69;7399187;19;1871;-35
2022/10/27 13:12:47;;;;;;;;;;;;;;;21.82;57.71;102012.91;7393013;19;2917;-34
2022/10/27 13:15:31;;;;;;;;;;;;;;;21.86;58.56;102014.38;7397792;19;1743;-35
2022/10/27 13:18:05;;;;;;;;;;;;;;;21.79;58.97;102030.16;7398572;19;1777;-35
2022/10/27 13:20:46;;;;;;;;;;;;;;;21.74;59.82;102018.91;7399758;19;1634;-35
2022/10/27 13:23:20;;;;;;;;;;;;;;;21.69;59.72;102020.28;7400465;19;1450;-34
2022/10/27 13:25:51;;;;;;;;;;;;;;;21.63;59.51;102021.63;7399216;19;1782;-35
2022/10/27 13:28:23;;;;;;;;;;;;;;;21.73;59.24;102009.13;7399821;19;1780;-36
2022/10/27 13:30:54;;;;;;;;;;;;;;;21.63;59.29;102009.00;7396712;19;1857;-35
2022/10/27 13:33:32;;;;;;;;;;;;;;;21.60;58.79;102005.69;7398901;19;1689;-35
2022/10/27 13:36:18;;;;;;;;;;;;;;;21.63;58.75;102021.63;7398819;19;1810;-35
2022/10/27 13:38:49;;;;;;;;;;;;;;;21.67;58.69;102012.31;7397460;19;1938;-35
2022/10/27 13:41:35;;;;;;;;;;;;;;;21.71;58.44;102024.53;7397841;19;1565;-35
2022/10/27 13:44:03;;;;;;;;;;;;;;;21.68;59.30;102022.09;7397828;19;1661;-36
2022/10/27 13:46:47;;;;;;;;;;;;;;;21.64;58.57;102012.53;7397671;19;2021;-35
2022/10/27 13:49:30;;;;;;;;;;;;;;;21.66;58.35;102021.34;7396215;19;1850;-35
2022/10/27 13:52:12;;;;;;;;;;;;;;;21.64;59.40;102017.94;7398733;19;1555;-35
2022/10/27 13:54:53;;;;;;;;;;;;;;;21.62;59.35;102030.66;7398839;19;1546;-37
2022/10/27 13:57:40;;;;;;;;;;;;;;;21.61;59.70;102020.88;7396619;19;1923;-36
2022/10/27 14:00:11;;;;;;;;;;;;;;;21.49;60.07;102025.41;7395819;19;1455;-35
2022/10/27 14:02:46;;;;;;;;;;;;;;;21.39;60.52;102019.84;7395190;19;1842;-35
2022/10/27 14:05:22;;;;;;;;;;;;;;;21.38;60.50;102020.81;7398281;19;1785;-35
2022/10/27 14:07:51;;;;;;;;;;;;;;;21.34;60.78;102032.78;7398316;19;1963;-34
2022/10/27 14:10:22;;;;;;;;;;;;;;;21.43;60.61;102023.19;7397164;19;1914;-34
2022/10/27 14:12:50;;;;;;;;;;;;;;;21.47;60.67;102031.88;7398517;19;1592;-35
2022/10/27 14:15:22;;;;;;;;;;;;;;;21.45;60.52;102010.47;7399030;19;1422;-35
2022/10/27 14:17:54;;;;;;;;;;;;;;;21.43;60.56;102021.34;7395425;19;1771;-35
2022/10/27 14:20:26;;;;;;;;;;;;;;;21.43;60.81;102026.75;7397813;19;1760;-35
2022/10/27 14:22:57;;;;;;;;;;;;;;;21.48;60.07;102012.06;7397230;19;1569;-35
2022/10/27 14:25:30;;;;;;;;;;;;;;;21.42;61.08;102040.28;7394569;19;1342;-36
2022/10/27 14:28:06;;;;;;;;;;;;;;;21.32;61.21;102017.75;7398623;19;1775;-35
2022/10/27 14:30:35;;;;;;;;;;;;;;;21.27;61.24;102023.50;7396949;19;1849;-35
2022/10/27 14:33:17;;;;;;;;;;;;;;;21.24;61.58;102018.34;7398904;19;1956;-35
2022/10/27 14:35:45;;;;;;;;;;;;;;;21.24;61.42;102024.59;7397953;19;1961;-35
2022/10/27 14:38:16;;;;;;;;;;;;;;;21.30;61.44;102030.47;7399615;19;1910;-36
2022/10/27 14:40:48;;;;;;;;;;;;;;;21.24;61.55;102015.66;7401159;19;1709;-35
2022/10/27 14:43:20;;;;;;;;;;;;;;;21.27;61.80;102031.59;7405832;19;1879;-35
2022/10/27 14:45:50;;;;;;;;;;;;;;;21.19;61.85;102016.03;7405892;19;1756;-35
2022/10/27 14:48:26;;;;;;;;;;;;;;;21.20;61.72;102012.34;7403613;19;1586;-35
2022/10/27 14:50:55;;;;;;;;;;;;;;;21.19;61.59;102020.56;7403298;19;1854;-35
2022/10/27 14:53:29;;;;;;;;;;;;;;;21.22;61.18;102018.47;7404955;19;1580;-35
2022/10/27 14:56:08;;;;;;;;;;;;;;;21.28;61.33;102027.91;7405194;19;1671;-36
2022/10/27 14:58:36;;;;;;;;;;;;;;;21.29;61.72;102021.56;7405567;19;1993;-35
2022/10/27 15:01:05;;;;;;;;;;;;;;;21.24;61.53;102026.44;7404674;19;1672;-35
2022/10/27 15:03:34;;;;;;;;;;;;;;;21.28;61.99;102021.66;7405746;19;1583;-35
2022/10/27 15:06:03;;;;;;;;;;;;;;;21.40;61.32;102029.63;7405084;19;1754;-35
2022/10/27 15:08:34;;;;;;;;;;;;;;;21.29;58.80;102017.97;7405006;19;1663;-36
2022/10/27 15:11:02;;;;;;;;;;;;;;;21.26;59.14;102024.47;7402723;19;1857;-35
2022/10/27 15:13:33;;;;;;;;;;;;;;;21.25;61.87;102023.63;7405351;19;1621;-35
2022/10/27 15:16:06;;;;;;;;;;;;;;;21.21;61.90;102018.63;7406340;19;1491;-35
2022/10/27 15:18:37;;;;;;;;;;;;;;;21.19;61.84;102026.78;7405805;19;1517;-35
2022/10/27 15:21:10;;;;;;;;;;;;;;;21.21;61.91;102030.22;7405350;19;2123;-36
2022/10/27 15:23:41;;;;;;;;;;;;;;;21.20;61.58;102030.34;7403766;19;1738;-35
2022/10/27 15:26:13;;;;;;;;;;;;;;;21.22;61.51;102028.38;7405481;19;1999;-35
2022/10/27 15:28:44;;;;;;;;;;;;;;;21.22;61.56;102042.69;7404888;19;1761;-35
2022/10/27 15:31:13;;;;;;;;;;;;;;;21.13;60.33;102024.59;7403095;19;1878;-37
2022/10/27 15:33:42;;;;;;;;;;;;;;;21.13;60.51;102023.72;7405818;19;1749;-35
2022/10/27 15:36:23;;;;;;;;;;;;;;;21.18;61.60;102021.53;7405646;19;1756;-36
2022/10/27 15:38:51;;;;;;;;;;;;;;;21.15;61.73;102043.28;7405544;19;1044;-35
2022/10/27 15:41:21;;;;;;;;;;;;;;;21.14;61.66;102046.97;7405283;19;1952;-35
2022/10/27 15:43:53;;;;;;;;;;;;;;;21.14;60.38;102041.56;7403484;19;1940;-36
2022/10/27 15:46:29;;;;;;;;;;;;;;;21.22;60.79;102039.13;7402593;19;1878;-36
2022/10/27 15:49:13;;;;;;;;;;;;;;;21.28;60.88;102025.22;7403550;19;1581;-36
2022/10/27 15:51:47;;;;;;;;;;;;;;;21.31;60.79;102048.31;7402552;19;1856;-37
2022/10/27 15:54:25;;;;;;;;;;;;;;;21.21;61.06;102043.69;7402237;19;1871;-36
2022/10/27 15:56:54;;;;;;;;;;;;;;;21.21;60.95;102050.91;7403791;19;1568;-36
2022/10/27 15:59:26;;;;;;;;;;;;;;;21.20;61.28;102058.09;7405492;19;1237;-36
2022/10/27 16:01:55;;;;;;;;;;;;;;;21.18;59.19;102043.06;7399268;19;2038;-36
2022/10/27 16:04:31;;;;;;;;;;;;;;;21.16;60.58;102045.00;7403331;19;1368;-36
2022/10/27 16:07:26;;;;;;;;;;;;;;;21.22;60.36;102056.13;7403901;19;1718;-36
2022/10/27 16:09:54;;;;;;;;;;;;;;;21.21;60.74;102064.34;7399544;19;1791;-36
2022/10/27 16:12:24;;;;;;;;;;;;;;;21.16;60.95;102066.53;7402916;19;1392;-36
2022/10/27 16:14:56;;;;;;;;;;;;;;;21.19;60.82;102069.84;7403360;19;1087;-36
2022/10/27 16:17:25;;;;;;;;;;;;;;;21.21;60.51;102053.59;7400794;19;2031;-36
2022/10/27 16:19:53;;;;;;;;;;;;;;;21.23;60.26;102057.00;7401055;19;1679;-36
2022/10/27 16:22:23;;;;;;;;;;;;;;;21.20;61.20;102057.22;7401049;19;1940;-36
2022/10/27 16:24:51;;;;;;;;;;;;;;;21.17;60.40;102068.22;7402588;19;1697;-37
2022/10/27 16:27:21;;;;;;;;;;;;;;;21.19;59.41;102069.00;7401988;19;1722;-36
2022/10/27 16:29:57;;;;;;;;;;;;;;;21.20;60.37;102059.94;7402871;19;1016;-36
2022/10/27 16:32:29;;;;;;;;;;;;;;;21.25;60.13;102071.19;7397383;19;1860;-36
2022/10/27 16:34:57;;;;;;;;;;;;;;;21.36;60.12;102073.03;7401010;19;1908;-36
2022/10/27 16:37:26;;;;;;;;;;;;;;;21.35;60.32;102072.19;7398537;19;1567;-36
2022/10/27 16:39:55;;;;;;;;;;;;;;;21.35;60.95;102092.88;7395663;19;1576;-36
2022/10/27 16:42:24;;;;;;;;;;;;;;;21.40;61.12;102085.28;7401886;19;1215;-37
2022/10/27 16:44:52;;;;;;;;;;;;;;;21.43;61.12;102080.56;7401376;19;1188;-36
2022/10/27 16:47:21;;;;;;;;;;;;;;;21.44;60.69;102092.16;7400544;19;1651;-38
2022/10/27 16:49:54;;;;;;;;;;;;;;;21.30;61.81;102090.53;7400220;19;1362;-37
2022/10/27 16:52:22;;;;;;;;;;;;;;;21.30;62.15;102106.66;7398814;19;1849;-36
2022/10/27 16:54:50;;;;;;;;;;;;;;;21.24;58.26;102096.38;7401645;19;1589;-35
2022/10/27 16:57:18;;;;;;;;;;;;;;;21.22;59.52;102090.25;7399987;19;1439;-36
2022/10/27 16:59:47;;;;;;;;;;;;;;;21.19;58.79;102102.13;7330515;19;15344;-36
2022/10/27 17:02:15;;;;;;;;;;;;;;;21.16;60.21;102105.03;7398920;19;1853;-36
2022/10/27 17:04:43;;;;;;;;;;;;;;;21.20;61.13;102100.28;7397112;19;1725;-36
2022/10/27 17:07:14;;;;;;;;;;;;;;;21.31;61.07;102105.69;7402008;19;1731;-36
2022/10/27 17:09:42;;;;;;;;;;;;;;;21.26;61.33;102113.25;7400390;19;1567;-37
2022/10/27 17:12:10;;;;;;;;;;;;;;;21.34;60.81;102113.53;7398007;19;1856;-36
2022/10/27 17:14:39;;;;;;;;;;;;;;;21.28;61.18;102102.38;7400819;19;1480;-36
2022/10/27 17:17:07;;;;;;;;;;;;;;;21.30;60.86;102112.03;7399560;19;1628;-36
2022/10/27 17:19:35;;;;;;;;;;;;;;;21.30;61.41;102103.13;7399616;19;1482;-36
2022/10/27 17:22:03;;;;;;;;;;;;;;;21.28;61.68;102092.47;7399988;19;1513;-36
2022/10/27 17:24:34;;;;;;;;;;;;;;;21.26;61.79;102110.56;7399077;19;1482;-37
2022/10/27 17:27:02;;;;;;;;;;;;;;;21.27;61.59;102106.91;7399841;19;1449;-36
2022/10/27 17:29:30;;;;;;;;;;;;;;;21.20;62.46;102105.66;7401284;19;1572;-36
2022/10/27 17:31:59;;;;;;;;;;;;;;;21.32;62.13;102109.25;7398198;19;1857;-36
2022/10/27 17:34:28;;;;;;;;;;;;;;;21.28;62.67;102115.84;7398782;19;1504;-36
2022/10/27 17:36:57;;;;;;;;;;;;;;;21.23;60.31;102119.75;7399445;19;1545;-37
2022/10/27 17:39:25;;;;;;;;;;;;;;;21.27;61.29;102117.69;7399550;19;1713;-35
2022/10/27 17:41:56;;;;;;;;;;;;;;;21.25;63.35;102115.09;7400345;19;1823;-36
2022/10/27 17:44:24;;;;;;;;;;;;;;;21.26;63.80;102121.31;7399957;19;1056;-36
2022/10/27 17:46:52;;;;;;;;;;;;;;;21.28;62.53;102108.63;7397472;19;1738;-36
2022/10/27 17:49:21;;;;;;;;;;;;;;;21.28;63.04;102124.75;7397436;19;1603;-36
2022/10/27 17:51:49;;;;;;;;;;;;;;;21.25;64.11;102108.88;7398468;19;1853;-36
2022/10/27 17:54:17;;;;;;;;;;;;;;;21.26;63.81;102119.47;7399561;19;1908;-37
2022/10/27 17:56:45;;;;;;;;;;;;;;;21.28;63.60;102119.38;7400253;19;2091;-40
2022/10/27 17:59:18;;;;;;;;;;;;;;;21.22;64.09;102126.09;7398766;19;1039;-36
2022/10/27 18:01:48;;;;;;;;;;;;;;;21.15;63.84;102113.22;7394130;19;1911;-36
2022/10/27 18:04:17;;;;;;;;;;;;;;;21.15;63.70;102129.34;7399541;19;1721;-36
2022/10/27 18:06:45;;;;;;;;;;;;;;;21.15;63.71;102123.97;7398249;19;1742;-35
2022/10/27 18:09:13;;;;;;;;;;;;;;;21.14;63.72;102112.38;7399709;19;1797;-36
2022/10/27 18:11:43;;;;;;;;;;;;;;;21.19;63.27;102117.41;7399025;19;1854;-35
2022/10/27 18:14:15;;;;;;;;;;;;;;;21.14;63.67;102122.28;7399058;19;1045;-39
2022/10/27 18:16:46;;;;;;;;;;;;;;;21.14;63.73;102124.97;7399045;19;1653;-37
2022/10/27 18:19:16;;;;;;;;;;;;;;;21.16;63.13;102125.69;7405031;19;1964;-36
2022/10/27 18:21:45;;;;;;;;;;;;;;;21.17;63.61;102124.72;7405737;19;1839;-36
2022/10/27 18:24:14;;;;;;;;;;;;;;;21.12;63.78;102126.91;7406697;19;1919;-36
2022/10/27 18:26:44;;;;;;;;;;;;;;;21.09;63.47;102132.50;7407651;19;1012;-36
2022/10/27 18:29:13;;;;;;;;;;;;;;;21.09;63.67;102122.63;7406581;19;1567;-36
2022/10/27 18:31:43;;;;;;;;;;;;;;;21.08;63.12;102122.75;7402098;19;1861;-35
2022/10/27 18:34:15;;;;;;;;;;;;;;;21.08;63.22;102126.28;7404939;19;1503;-36
2022/10/27 18:36:44;;;;;;;;;;;;;;;21.14;63.21;102138.41;7403662;19;1384;-36
2022/10/27 18:39:14;;;;;;;;;;;;;;;21.27;62.89;102133.81;7406411;19;1671;-36
2022/10/27 18:41:43;;;;;;;;;;;;;;;21.28;61.83;102124.75;7406309;19;1091;-36
2022/10/27 18:44:11;;;;;;;;;;;;;;;21.26;62.83;102126.72;7406586;19;1114;-35
2022/10/27 18:46:39;;;;;;;;;;;;;;;21.29;62.29;102136.38;7402370;19;1849;-37
2022/10/27 18:49:08;;;;;;;;;;;;;;;21.20;62.76;102124.50;7404380;19;1844;-36
2022/10/27 18:51:39;;;;;;;;;;;;;;;21.14;62.80;102123.13;7403167;19;1842;-36
2022/10/27 18:54:09;;;;;;;;;;;;;;;21.17;62.77;102130.09;7405078;19;1826;-35
2022/10/27 18:56:38;;;;;;;;;;;;;;;21.19;62.08;102133.56;7405981;19;981;-36
2022/10/27 18:59:07;;;;;;;;;;;;;;;21.22;61.99;102136.00;7405263;19;1939;-35
2022/10/27 19:01:35;;;;;;;;;;;;;;;21.18;62.78;102145.28;7402059;19;1609;-35
2022/10/27 19:04:06;;;;;;;;;;;;;;;21.14;62.79;102127.66;7404459;19;1651;-35
2022/10/27 19:06:34;;;;;;;;;;;;;;;21.15;62.53;102134.72;7403601;19;1306;-35
2022/10/27 19:09:06;;;;;;;;;;;;;;;21.11;62.47;102127.88;7405969;19;1196;-36
2022/10/27 19:11:36;;;;;;;;;;;;;;;21.17;62.29;102143.53;7404818;19;1846;-35
2022/10/27 19:14:05;;;;;;;;;;;;;;;21.09;62.95;102145.97;7403470;19;1857;-35
2022/10/27 19:16:33;;;;;;;;;;;;;;;21.12;62.31;102159.19;7404533;19;1617;-36
2022/10/27 19:19:02;;;;;;;;;;;;;;;21.10;62.50;102143.16;7404378;19;1714;-36
2022/10/27 19:21:32;;;;;;;;;;;;;;;21.11;62.28;102147.59;7404112;19;1351;-36
2022/10/27 19:24:01;;;;;;;;;;;;;;;21.15;62.22;102150.88;7405041;19;1149;-36
2022/10/27 19:26:32;;;;;;;;;;;;;;;21.20;62.62;102135.25;7404784;19;1835;-37
2022/10/27 19:29:01;;;;;;;;;;;;;;;21.16;62.70;102142.69;7401954;19;2117;-35
2022/10/27 19:31:30;;;;;;;;;;;;;;;21.16;62.03;102158.81;7399296;19;2058;-37
2022/10/27 19:33:59;;;;;;;;;;;;;;;21.13;62.30;102147.44;7402895;19;1605;-36
2022/10/27 19:36:28;;;;;;;;;;;;;;;21.13;62.30;102142.94;7402989;19;1731;-35
2022/10/27 19:38:58;;;;;;;;;;;;;;;21.15;62.22;102145.50;7405389;19;1320;-36
2022/10/27 19:41:27;;;;;;;;;;;;;;;21.13;62.02;102145.63;7403806;19;1935;-35
2022/10/27 19:43:59;;;;;;;;;;;;;;;21.13;62.12;102153.69;7403755;19;1822;-35
2022/10/27 19:46:29;;;;;;;;;;;;;;;21.15;62.18;102158.94;7400749;19;1986;-36